createdAt,value
2018-05-27T00:05:53.720Z,9.68
2018-05-27T00:11:48.675Z,9.95
2018-05-27T00:17:43.892Z,8.01
2018-05-27T00:23:38.674Z,11.71
2018-05-27T00:29:33.695Z,7.52
2018-05-27T00:35:28.693Z,9.81
2018-05-27T00:41:23.732Z,11.38
2018-05-27T00:47:18.706Z,11.11
2018-05-27T00:53:13.709Z,12.81
2018-05-27T00:59:08.691Z,11.2
2018-05-27T01:05:03.718Z,11.13
2018-05-27T01:10:58.706Z,10.19
2018-05-27T01:16:53.730Z,9.59
2018-05-27T01:22:48.732Z,12.23
2018-05-27T01:28:43.711Z,19.72
2018-05-27T01:34:38.771Z,14.71
2018-05-27T01:40:33.851Z,13.36
2018-05-27T01:46:28.790Z,12.06
2018-05-27T01:52:23.717Z,14.78
2018-05-27T01:58:18.806Z,14.03
2018-05-27T02:04:13.749Z,12.24
2018-05-27T02:10:08.733Z,12.07
2018-05-27T02:16:03.748Z,12.39
2018-05-27T02:21:58.729Z,14.91
2018-05-27T02:27:53.754Z,17.34
2018-05-27T02:33:48.731Z,13.64
2018-05-27T02:39:43.753Z,16.48
2018-05-27T02:45:38.794Z,15.34
2018-05-27T02:51:33.767Z,13.96
2018-05-27T02:57:28.722Z,15.88
2018-05-27T03:03:23.783Z,12.72
2018-05-27T03:09:18.778Z,14.55
2018-05-27T03:15:13.801Z,11.99
2018-05-27T03:21:08.775Z,10.71
2018-05-27T03:27:03.763Z,15.82
2018-05-27T03:32:58.774Z,10.65
2018-05-27T03:38:53.768Z,13.79
2018-05-27T03:44:48.811Z,14.31
2018-05-27T03:50:43.798Z,15.15
2018-05-27T03:56:38.791Z,15.91
2018-05-27T04:02:33.773Z,15.16
2018-05-27T04:08:28.755Z,18.32
2018-05-27T04:14:23.754Z,17.97
2018-05-27T04:20:18.787Z,15.35
2018-05-27T04:26:13.769Z,14.89
2018-05-27T04:32:08.851Z,12.03
2018-05-27T04:38:03.785Z,12.83
2018-05-27T04:43:58.826Z,13.3
2018-05-27T04:49:53.790Z,12.63
2018-05-27T04:55:48.821Z,8.9
2018-05-27T05:01:43.817Z,9.23
2018-05-27T05:07:38.797Z,9.35
2018-05-27T05:13:33.797Z,10.28
2018-05-27T05:19:28.787Z,12.63
2018-05-27T05:25:24.367Z,15.22
2018-05-27T05:31:18.799Z,11.95
2018-05-27T05:37:13.800Z,22.82
2018-05-27T05:43:08.828Z,17.62
2018-05-27T05:49:03.793Z,10.09
2018-05-27T05:54:58.787Z,11.81
2018-05-27T06:00:53.816Z,11.22
2018-05-27T06:06:48.813Z,12.58
2018-05-27T06:12:43.796Z,13.44
2018-05-27T06:18:38.884Z,12.63
2018-05-27T06:24:33.822Z,11.59
2018-05-27T06:30:28.834Z,13.81
2018-05-27T06:36:23.829Z,14.39
2018-05-27T06:42:18.836Z,11.39
2018-05-27T06:48:13.850Z,18.88
2018-05-27T06:54:08.825Z,14.77
2018-05-27T07:00:04.461Z,14.23
2018-05-27T07:05:58.839Z,17.35
2018-05-27T07:11:53.845Z,14.96
2018-05-27T07:17:48.840Z,14.33
2018-05-27T07:23:43.913Z,15.86
2018-05-27T07:29:38.857Z,12.55
2018-05-27T07:35:33.897Z,16.53
2018-05-27T07:41:28.872Z,12.69
2018-05-27T07:47:23.854Z,11.66
2018-05-27T07:53:18.960Z,13.68
2018-05-27T07:59:13.844Z,12.79
2018-05-27T08:05:08.870Z,14.35
2018-05-27T08:11:03.883Z,10.17
2018-05-27T08:16:58.873Z,12.71
2018-05-27T08:22:53.950Z,11.77
2018-05-27T08:28:48.837Z,13.05
2018-05-27T08:34:43.846Z,10.16
2018-05-27T08:40:38.866Z,9.48
2018-05-27T08:46:33.893Z,12.05
2018-05-27T08:52:28.880Z,11.43
2018-05-27T08:58:23.894Z,11.32
2018-05-27T09:04:18.937Z,12.36
2018-05-27T09:10:13.884Z,7.37
2018-05-27T09:16:08.887Z,11.52
2018-05-27T09:22:03.873Z,12.49
2018-05-27T09:27:58.876Z,10.47
2018-05-27T09:33:53.890Z,7.16
2018-05-27T09:39:48.892Z,9.41
2018-05-27T09:45:43.915Z,8
2018-05-27T09:51:38.902Z,8.98
2018-05-27T09:57:33.880Z,8.77
2018-05-27T10:03:28.897Z,8.1
2018-05-27T10:09:23.899Z,7.58
2018-05-27T10:15:18.881Z,8.69
2018-05-27T10:21:13.906Z,6.27
2018-05-27T10:27:08.892Z,7.77
2018-05-27T10:33:03.933Z,8.86
2018-05-27T10:38:58.913Z,8.17
2018-05-27T10:44:53.934Z,5.41
2018-05-27T10:50:48.893Z,5.36
2018-05-27T10:56:43.956Z,9.57
2018-05-27T11:02:38.953Z,9.71
2018-05-27T11:08:33.961Z,3.6
2018-05-27T11:14:28.926Z,3.85
2018-05-27T11:20:23.933Z,4.58
2018-05-27T11:26:18.924Z,4.61
2018-05-27T11:32:13.948Z,2.98
2018-05-27T11:38:08.942Z,4.09
2018-05-27T11:44:03.975Z,3.56
2018-05-27T11:49:58.937Z,13.13
2018-05-27T11:55:53.941Z,5.93
2018-05-27T12:01:49.023Z,3.97
2018-05-27T12:07:43.960Z,1.91
2018-05-27T12:13:39.008Z,1.83
2018-05-27T12:19:34.080Z,1.79
2018-05-27T12:25:28.964Z,4.86
2018-05-27T12:37:18.943Z,1.84
2018-05-27T12:37:19.007Z,1.96
2018-05-27T12:43:14.021Z,2.63
2018-05-27T12:49:08.967Z,3.07
2018-05-27T13:00:58.991Z,2.02
2018-05-27T13:00:59.034Z,4.25
2018-05-27T13:06:53.985Z,3.41
2018-05-27T13:12:49.024Z,2.08
2018-05-27T13:24:38.982Z,1.91
2018-05-27T13:24:39.068Z,2.38
2018-05-27T13:42:24.022Z,6.73
2018-05-27T13:42:24.050Z,2.3
2018-05-27T13:42:24.069Z,2.3
2018-05-27T14:00:09.084Z,2.73
2018-05-27T14:00:09.218Z,3.11
2018-05-27T14:41:34.054Z,2.99
2018-05-27T14:41:34.110Z,5.78
2018-05-27T14:41:34.125Z,5.78
2018-05-27T14:41:34.132Z,5.78
2018-05-27T14:41:34.148Z,5.78
2018-05-27T14:41:34.197Z,5.78
2018-05-27T14:41:34.213Z,5.78
2018-05-27T14:47:29.007Z,3.19
2018-05-27T14:53:24.017Z,4.53
2018-05-27T14:59:19.093Z,5.33
2018-05-27T15:05:14.101Z,6.48
2018-05-27T15:11:09.042Z,8.33
2018-05-27T15:17:04.029Z,3.58
2018-05-27T15:22:59.017Z,5.65
2018-05-27T15:28:54.057Z,6.44
2018-05-27T15:34:49.012Z,5.08
2018-05-27T15:40:44.044Z,6.94
2018-05-27T15:46:38.997Z,5.6
2018-05-27T15:52:34.044Z,6.55
2018-05-27T15:58:29.038Z,7.42
2018-05-27T16:04:24.040Z,9.19
2018-05-27T16:10:19.002Z,9.59
2018-05-27T16:16:14.026Z,9.04
2018-05-27T16:22:09.123Z,7.7
2018-05-27T16:33:59.071Z,9.1
2018-05-27T16:33:59.088Z,7.31
2018-05-27T17:15:24.152Z,11.7
2018-05-27T17:15:24.202Z,10.76
2018-05-27T17:15:24.209Z,10.76
2018-05-27T17:15:24.256Z,10.76
2018-05-27T17:15:24.264Z,10.76
2018-05-27T17:15:24.310Z,10.76
2018-05-27T17:15:24.359Z,10.76
2018-05-27T17:21:19.078Z,9.25
2018-05-27T17:27:14.140Z,8.57
2018-05-27T17:33:09.085Z,8.99
2018-05-27T17:39:04.044Z,7.79
2018-05-27T17:44:59.096Z,9.57
2018-05-27T17:50:54.118Z,9.96
2018-05-27T17:56:49.116Z,8.82
2018-05-27T18:02:44.089Z,7.07
2018-05-27T18:08:39.107Z,8.84
2018-05-27T18:14:34.061Z,10.02
2018-05-27T18:20:29.143Z,9.96
2018-05-27T18:26:24.102Z,10.9
2018-05-27T18:32:19.095Z,8.99
2018-05-27T18:38:14.171Z,12.09
2018-05-27T18:44:09.072Z,7.09
2018-05-27T18:50:04.143Z,8.15
2018-05-27T18:55:59.096Z,9.62
2018-05-27T19:01:54.116Z,10.77
2018-05-27T19:07:49.143Z,8.78
2018-05-27T19:13:44.125Z,11.13
2018-05-27T19:19:39.131Z,8.19
2018-05-27T19:25:34.164Z,9.99
2018-05-27T19:31:29.110Z,9.69
2018-05-27T19:37:24.123Z,9.86
2018-05-27T19:43:19.123Z,10.81
2018-05-27T19:49:14.228Z,8.66
2018-05-27T19:55:09.146Z,7.8
2018-05-27T20:01:04.121Z,8.91
2018-05-27T20:06:59.141Z,10.29
2018-05-27T20:12:54.189Z,7.84
2018-05-27T20:18:49.137Z,10.05
2018-05-27T20:24:44.131Z,9.15
2018-05-27T20:30:39.168Z,9.82
2018-05-27T20:36:34.138Z,8.67
2018-05-27T20:42:29.209Z,13.01
2018-05-27T20:48:24.123Z,12.54
2018-05-27T20:54:19.144Z,9.71
2018-05-27T21:00:14.166Z,12.53
2018-05-27T21:06:09.158Z,15.26
2018-05-27T21:12:04.153Z,16.9
2018-05-27T21:17:59.155Z,20.03
2018-05-27T21:23:54.186Z,15.37
2018-05-27T21:29:49.138Z,13.42
2018-05-27T21:35:44.156Z,14.56
2018-05-27T21:41:39.169Z,11.9
2018-05-27T21:47:34.190Z,11.98
2018-05-27T21:53:29.180Z,15.68
2018-05-27T21:59:24.179Z,14.71
2018-05-27T22:05:19.229Z,14.57
2018-05-27T22:11:14.228Z,13.85
2018-05-27T22:17:09.144Z,17.79
2018-05-27T22:23:04.170Z,16.03
2018-05-27T22:28:59.165Z,14.47
2018-05-27T22:34:54.179Z,17.28
2018-05-27T22:40:49.185Z,15.78
2018-05-27T22:46:44.223Z,16.37
2018-05-27T22:52:39.247Z,19.29
2018-05-27T22:58:34.215Z,14.39
2018-05-27T23:04:29.186Z,12.95
2018-05-27T23:10:24.197Z,15
2018-05-27T23:16:19.180Z,17.04
2018-05-27T23:22:14.205Z,12.9
2018-05-27T23:28:09.208Z,18.31
2018-05-27T23:34:04.215Z,11.76
2018-05-27T23:39:59.195Z,17.27
2018-05-27T23:45:54.217Z,16.09
2018-05-27T23:51:49.211Z,17.92
2018-05-27T23:57:44.240Z,15.11
